createdAt,value
2022-12-18T00:01:25.421Z,15.70
2022-12-18T00:03:54.364Z,15.70
2022-12-18T00:06:22.475Z,15.70
2022-12-18T00:08:49.781Z,15.70
2022-12-18T00:11:19.997Z,16.20
2022-12-18T00:13:47.437Z,15.70
2022-12-18T00:16:21.657Z,15.80
2022-12-18T00:18:50.730Z,15.50
2022-12-18T00:21:18.283Z,14.50
2022-12-18T00:23:46.288Z,13.30
2022-12-18T00:26:16.208Z,12.00
2022-12-18T00:28:44.123Z,11.10
2022-12-18T00:31:14.666Z,11.30
2022-12-18T00:33:42.240Z,12.00
2022-12-18T00:36:18.956Z,12.60
2022-12-18T00:38:46.780Z,13.00
2022-12-18T00:41:35.768Z,13.40
2022-12-18T00:44:03.659Z,13.70
2022-12-18T00:46:31.240Z,13.90
2022-12-18T00:48:58.428Z,14.10
2022-12-18T00:51:27.448Z,14.30
2022-12-18T00:53:54.729Z,14.40
2022-12-18T00:56:22.021Z,14.60
2022-12-18T00:58:49.556Z,14.60
2022-12-18T01:01:17.400Z,14.70
2022-12-18T01:03:46.164Z,15.20
2022-12-18T01:06:14.928Z,14.90
2022-12-18T01:08:42.316Z,15.00
2022-12-18T01:11:14.742Z,15.00
2022-12-18T01:13:42.307Z,15.10
2022-12-18T01:16:11.930Z,15.10
2022-12-18T01:18:39.360Z,15.20
2022-12-18T01:21:11.189Z,15.10
2022-12-18T01:23:39.052Z,15.20
2022-12-18T01:26:11.957Z,15.20
2022-12-18T01:28:39.186Z,15.20
2022-12-18T01:31:28.555Z,15.30
2022-12-18T01:33:56.582Z,15.30
2022-12-18T01:36:35.337Z,15.30
2022-12-18T01:39:05.673Z,15.30
2022-12-18T01:41:53.353Z,15.30
2022-12-18T01:44:51.485Z,15.30
2022-12-18T01:47:28.533Z,15.30
2022-12-18T01:49:57.897Z,15.30
2022-12-18T01:52:27.260Z,15.20
2022-12-18T01:54:55.526Z,15.20
2022-12-18T01:57:23.995Z,15.20
2022-12-18T01:59:54.653Z,15.80
2022-12-18T02:02:22.347Z,15.30
2022-12-18T02:04:49.834Z,15.30
2022-12-18T02:07:43.246Z,15.30
2022-12-18T02:10:28.234Z,15.40
2022-12-18T02:13:14.474Z,16.10
2022-12-18T02:16:03.869Z,15.40
2022-12-18T02:18:36.658Z,15.40
2022-12-18T02:21:23.138Z,15.40
2022-12-18T02:24:32.854Z,15.50
2022-12-18T02:27:06.886Z,15.50
2022-12-18T02:29:44.652Z,15.50
2022-12-18T02:32:17.507Z,15.40
2022-12-18T02:34:46.986Z,15.40
2022-12-18T02:37:18.572Z,15.50
2022-12-18T02:39:49.107Z,15.50
2022-12-18T02:42:17.562Z,15.40
2022-12-18T02:44:50.179Z,15.40
2022-12-18T02:47:21.196Z,15.50
2022-12-18T02:50:10.754Z,15.50
2022-12-18T02:52:43.991Z,15.40
2022-12-18T02:55:27.150Z,15.40
2022-12-18T02:57:59.415Z,15.40
2022-12-18T03:00:43.805Z,15.40
2022-12-18T03:03:15.672Z,15.40
2022-12-18T03:05:46.787Z,15.40
2022-12-18T03:08:20.135Z,15.40
2022-12-18T03:10:53.561Z,15.40
2022-12-18T03:13:32.901Z,15.40
2022-12-18T03:16:01.334Z,15.40
2022-12-18T03:18:37.907Z,15.40
2022-12-18T03:21:08.752Z,15.40
2022-12-18T03:23:45.847Z,15.40
2022-12-18T03:26:18.259Z,15.40
2022-12-18T03:28:51.048Z,15.40
2022-12-18T03:31:21.291Z,15.40
2022-12-18T03:33:56.836Z,15.50
2022-12-18T03:36:24.632Z,15.50
2022-12-18T03:38:52.280Z,15.50
2022-12-18T03:41:33.627Z,15.50
2022-12-18T03:44:12.606Z,15.50
2022-12-18T03:46:58.092Z,15.60
2022-12-18T03:49:37.440Z,15.60
2022-12-18T03:52:17.720Z,15.60
2022-12-18T03:54:46.464Z,15.60
2022-12-18T03:57:23.388Z,15.50
2022-12-18T03:59:58.304Z,15.50
2022-12-18T04:02:26.195Z,15.50
2022-12-18T04:04:57.677Z,15.50
2022-12-18T04:07:25.541Z,15.50
2022-12-18T04:09:57.420Z,15.50
2022-12-18T04:12:29.785Z,15.40
2022-12-18T04:14:56.915Z,15.40
2022-12-18T04:17:24.703Z,15.40
2022-12-18T04:19:51.769Z,15.40
2022-12-18T04:22:18.877Z,15.40
2022-12-18T04:24:45.943Z,15.40
2022-12-18T04:27:13.426Z,15.40
2022-12-18T04:29:40.649Z,15.40
2022-12-18T04:32:08.569Z,15.80
2022-12-18T04:34:35.629Z,15.40
2022-12-18T04:37:02.865Z,15.40
2022-12-18T04:39:29.915Z,15.40
2022-12-18T04:41:57.019Z,15.40
2022-12-18T04:44:24.262Z,15.40
2022-12-18T04:46:51.349Z,15.40
2022-12-18T04:49:18.489Z,15.30
2022-12-18T04:51:45.513Z,15.30
2022-12-18T04:54:12.567Z,15.30
2022-12-18T04:56:39.806Z,15.30
2022-12-18T04:59:06.947Z,15.50
2022-12-18T05:01:35.650Z,15.40
2022-12-18T05:04:03.728Z,15.50
2022-12-18T05:06:30.846Z,15.50
2022-12-18T05:08:58.317Z,15.50
2022-12-18T05:11:25.384Z,15.50
2022-12-18T05:13:52.448Z,15.50
2022-12-18T05:16:19.664Z,15.50
2022-12-18T05:18:46.824Z,15.80
2022-12-18T05:21:13.894Z,15.50
2022-12-18T05:23:41.277Z,15.50
2022-12-18T05:26:09.794Z,15.40
2022-12-18T05:28:37.327Z,15.50
2022-12-18T05:31:05.586Z,15.40
2022-12-18T05:33:34.955Z,15.40
2022-12-18T05:36:03.558Z,15.40
2022-12-18T05:38:32.423Z,15.50
2022-12-18T05:40:59.808Z,15.50
2022-12-18T05:43:28.091Z,15.50
2022-12-18T05:45:55.490Z,15.90
2022-12-18T05:48:22.899Z,15.60
2022-12-18T05:50:51.142Z,15.50
2022-12-18T05:53:20.228Z,15.60
2022-12-18T05:55:47.472Z,15.50
2022-12-18T05:58:15.243Z,15.60
2022-12-18T06:00:45.068Z,15.50
2022-12-18T06:03:12.899Z,15.50
2022-12-18T06:05:45.681Z,15.50
2022-12-18T06:08:14.050Z,15.50
2022-12-18T06:10:41.965Z,15.50
2022-12-18T06:13:09.523Z,15.50
2022-12-18T06:15:39.829Z,15.50
2022-12-18T06:18:06.907Z,15.50
2022-12-18T06:20:34.553Z,15.50
2022-12-18T06:23:01.663Z,15.50
2022-12-18T06:25:28.728Z,15.50
2022-12-18T06:27:55.799Z,15.50
2022-12-18T06:30:23.096Z,15.40
2022-12-18T06:32:56.324Z,15.50
2022-12-18T06:35:27.007Z,15.60
2022-12-18T06:37:54.040Z,15.60
2022-12-18T06:40:21.425Z,15.60
2022-12-18T06:42:48.502Z,15.60
2022-12-18T06:45:15.701Z,15.60
2022-12-18T06:47:42.782Z,15.60
2022-12-18T06:50:10.249Z,15.60
2022-12-18T06:52:37.754Z,15.60
2022-12-18T06:55:05.543Z,15.60
2022-12-18T06:57:32.609Z,15.60
2022-12-18T06:59:59.653Z,15.60
2022-12-18T07:02:26.816Z,15.60
2022-12-18T07:04:53.909Z,15.60
2022-12-18T07:07:20.957Z,15.60
2022-12-18T07:09:48.019Z,15.60
2022-12-18T07:12:15.093Z,15.60
2022-12-18T07:14:42.165Z,15.60
2022-12-18T07:17:09.351Z,15.60
2022-12-18T07:19:36.530Z,15.60
2022-12-18T07:22:03.599Z,15.60
2022-12-18T07:24:33.041Z,15.60
2022-12-18T07:27:00.089Z,15.60
2022-12-18T07:29:27.193Z,15.60
2022-12-18T07:31:54.356Z,15.60
2022-12-18T07:34:21.529Z,15.60
2022-12-18T07:36:48.651Z,15.60
2022-12-18T07:39:15.766Z,15.60
2022-12-18T07:41:47.381Z,15.50
2022-12-18T07:44:14.715Z,15.60
2022-12-18T07:46:41.801Z,15.60
2022-12-18T07:49:08.938Z,15.60
2022-12-18T07:51:35.986Z,15.60
2022-12-18T07:54:03.059Z,15.50
2022-12-18T07:56:31.443Z,15.60
2022-12-18T07:58:59.743Z,15.60
2022-12-18T08:01:27.933Z,15.60
2022-12-18T08:03:55.234Z,15.60
2022-12-18T08:06:24.124Z,15.60
2022-12-18T08:08:56.433Z,15.60
2022-12-18T08:11:26.434Z,15.60
2022-12-18T08:13:53.607Z,15.60
2022-12-18T08:16:21.658Z,15.60
2022-12-18T08:18:49.516Z,15.60
2022-12-18T08:21:25.668Z,15.50
2022-12-18T08:23:54.571Z,15.60
2022-12-18T08:26:22.644Z,15.60
2022-12-18T08:28:51.160Z,15.30
2022-12-18T08:31:19.531Z,14.00
2022-12-18T08:33:50.277Z,12.60
2022-12-18T08:36:18.039Z,12.40
2022-12-18T08:38:45.075Z,13.10
2022-12-18T08:41:13.871Z,12.70
2022-12-18T08:44:00.041Z,13.10
2022-12-18T08:46:32.159Z,13.50
2022-12-18T08:48:59.321Z,13.90
2022-12-18T08:51:26.579Z,14.20
2022-12-18T08:53:53.651Z,14.30
2022-12-18T08:56:20.722Z,14.50
2022-12-18T08:58:47.781Z,15.00
2022-12-18T09:01:15.114Z,14.80
2022-12-18T09:03:42.834Z,15.10
2022-12-18T09:06:10.275Z,14.90
2022-12-18T09:08:40.487Z,14.90
2022-12-18T09:11:26.698Z,15.30
2022-12-18T09:13:56.105Z,15.10
2022-12-18T09:16:30.319Z,15.10
2022-12-18T09:19:02.810Z,15.20
2022-12-18T09:21:34.792Z,15.20
2022-12-18T09:24:04.346Z,15.60
2022-12-18T09:26:32.337Z,15.30
2022-12-18T09:28:59.377Z,15.30
2022-12-18T09:31:26.577Z,15.30
2022-12-18T09:33:55.334Z,15.30
2022-12-18T09:36:22.379Z,15.40
2022-12-18T09:38:49.417Z,16.20
2022-12-18T09:41:54.437Z,15.40
2022-12-18T09:44:28.741Z,15.40
2022-12-18T09:47:13.955Z,15.40
2022-12-18T09:49:46.501Z,15.40
2022-12-18T09:52:31.402Z,15.40
2022-12-18T09:55:11.629Z,15.50
2022-12-18T09:57:46.106Z,15.50
2022-12-18T10:00:19.958Z,15.80
2022-12-18T10:02:47.841Z,15.50
2022-12-18T10:05:18.438Z,15.50
2022-12-18T10:07:58.274Z,15.60
2022-12-18T10:10:31.522Z,15.60
2022-12-18T10:13:16.512Z,15.60
2022-12-18T10:15:53.025Z,15.60
2022-12-18T10:18:29.370Z,15.60
2022-12-18T10:21:04.636Z,15.60
2022-12-18T10:23:48.199Z,15.80
2022-12-18T10:26:15.762Z,15.60
2022-12-18T10:28:45.197Z,15.90
2022-12-18T10:31:21.163Z,15.60
2022-12-18T10:33:54.575Z,15.60
2022-12-18T10:36:24.805Z,15.60
2022-12-18T10:38:52.713Z,15.90
2022-12-18T10:41:20.026Z,15.60
2022-12-18T10:43:49.355Z,15.60
2022-12-18T10:46:21.868Z,15.60
2022-12-18T10:48:53.800Z,15.60
2022-12-18T10:51:34.459Z,15.50
2022-12-18T10:54:16.833Z,15.60
2022-12-18T10:56:44.838Z,15.60
2022-12-18T10:59:16.246Z,15.60
2022-12-18T11:01:58.681Z,15.70
2022-12-18T11:04:31.939Z,15.70
2022-12-18T11:07:09.404Z,15.70
2022-12-18T11:09:38.040Z,15.70
2022-12-18T11:12:17.711Z,15.70
2022-12-18T11:14:51.347Z,15.70
2022-12-18T11:17:31.410Z,15.70
2022-12-18T11:20:00.857Z,15.70
2022-12-18T11:22:30.372Z,15.70
2022-12-18T11:25:33.509Z,15.60
2022-12-18T11:28:05.900Z,15.70
2022-12-18T11:30:35.556Z,15.70
2022-12-18T11:33:22.656Z,15.70
2022-12-18T11:35:53.757Z,15.70
2022-12-18T11:38:27.039Z,15.70
2022-12-18T11:41:06.143Z,15.70
2022-12-18T11:43:45.040Z,15.80
2022-12-18T11:46:19.986Z,15.60
2022-12-18T11:48:57.804Z,15.60
2022-12-18T11:51:44.292Z,15.70
2022-12-18T11:54:15.155Z,15.70
2022-12-18T11:57:17.333Z,15.80
2022-12-18T12:00:02.338Z,15.90
2022-12-18T12:02:53.379Z,15.90
2022-12-18T12:05:32.018Z,16.00
2022-12-18T12:08:23.980Z,16.00
2022-12-18T12:11:04.401Z,16.00
2022-12-18T12:13:49.708Z,15.80
2022-12-18T12:16:32.447Z,15.60
2022-12-18T12:19:16.505Z,15.50
2022-12-18T12:21:54.641Z,15.20
2022-12-18T12:24:50.460Z,15.10
2022-12-18T12:27:43.856Z,15.00
2022-12-18T12:30:22.104Z,15.00
2022-12-18T12:32:57.173Z,14.90
2022-12-18T12:36:07.949Z,14.80
2022-12-18T12:38:45.660Z,14.30
2022-12-18T12:41:49.117Z,13.00
2022-12-18T12:44:23.047Z,12.80
2022-12-18T12:46:56.057Z,13.10
2022-12-18T12:49:29.710Z,13.20
2022-12-18T12:52:04.492Z,13.40
2022-12-18T12:54:33.655Z,13.60
2022-12-18T12:57:10.462Z,13.80
2022-12-18T12:59:50.927Z,13.50
2022-12-18T13:02:32.219Z,12.10
2022-12-18T13:05:04.681Z,12.00
2022-12-18T13:07:42.573Z,12.30
2022-12-18T13:10:20.598Z,12.60
2022-12-18T13:12:56.575Z,12.90
2022-12-18T13:15:27.129Z,13.20
2022-12-18T13:18:21.517Z,13.50
2022-12-18T13:21:19.792Z,13.70
2022-12-18T13:23:47.270Z,14.00
2022-12-18T13:26:17.171Z,14.00
2022-12-18T13:28:47.015Z,14.20
2022-12-18T13:31:42.550Z,14.30
2022-12-18T13:34:27.442Z,13.50
2022-12-18T13:37:17.566Z,11.60
2022-12-18T13:39:44.842Z,10.30
2022-12-18T13:42:31.912Z,10.50
2022-12-18T13:44:59.234Z,11.10
2022-12-18T13:47:41.123Z,11.30
2022-12-18T13:50:27.716Z,11.50
2022-12-18T13:52:59.675Z,11.90
2022-12-18T13:55:27.496Z,12.40
2022-12-18T13:58:05.953Z,12.70
2022-12-18T14:00:33.105Z,13.20
2022-12-18T14:03:01.422Z,13.50
2022-12-18T14:05:32.339Z,13.70
2022-12-18T14:08:07.048Z,13.90
2022-12-18T14:10:48.399Z,14.00
2022-12-18T14:13:28.993Z,14.10
2022-12-18T14:15:57.784Z,14.20
2022-12-18T14:18:55.317Z,14.10
2022-12-18T14:21:27.714Z,14.00
2022-12-18T14:24:19.689Z,13.90
2022-12-18T14:26:50.510Z,14.00
2022-12-18T14:29:31.750Z,14.00
2022-12-18T14:32:16.544Z,14.20
2022-12-18T14:34:55.047Z,14.30
2022-12-18T14:37:27.881Z,14.40
2022-12-18T14:40:10.662Z,14.50
2022-12-18T14:42:38.641Z,14.60
2022-12-18T14:45:43.134Z,14.70
2022-12-18T14:48:35.572Z,14.70
2022-12-18T14:51:11.668Z,14.80
2022-12-18T14:53:44.527Z,14.90
2022-12-18T14:56:21.373Z,14.80
2022-12-18T14:59:01.708Z,14.90
2022-12-18T15:01:38.369Z,15.00
2022-12-18T15:04:23.318Z,15.00
2022-12-18T15:07:05.577Z,15.00
2022-12-18T15:09:32.785Z,15.00
2022-12-18T15:12:02.081Z,15.00
2022-12-18T15:14:40.977Z,15.00
2022-12-18T15:17:20.694Z,15.00
2022-12-18T15:19:49.915Z,15.10
2022-12-18T15:22:21.505Z,15.10
2022-12-18T15:24:50.163Z,15.20
2022-12-18T15:27:25.258Z,15.10
2022-12-18T15:30:01.722Z,15.10
2022-12-18T15:32:28.759Z,15.10
2022-12-18T15:35:16.785Z,15.70
2022-12-18T15:37:44.510Z,15.20
2022-12-18T15:40:17.447Z,15.20
2022-12-18T15:43:03.895Z,15.30
2022-12-18T15:45:31.057Z,15.20
2022-12-18T15:47:58.223Z,15.30
2022-12-18T15:50:26.010Z,15.30
2022-12-18T15:52:56.359Z,15.30
2022-12-18T15:55:43.831Z,15.30
2022-12-18T15:58:12.949Z,15.30
2022-12-18T16:00:41.610Z,15.30
2022-12-18T16:03:10.689Z,15.30
2022-12-18T16:05:38.035Z,15.30
2022-12-18T16:08:05.168Z,15.30
2022-12-18T16:10:32.283Z,15.30
2022-12-18T16:12:59.407Z,15.30
2022-12-18T16:15:26.512Z,15.30
2022-12-18T16:17:53.683Z,15.30
2022-12-18T16:20:22.708Z,15.30
2022-12-18T16:22:50.565Z,15.30
2022-12-18T16:25:27.687Z,15.30
2022-12-18T16:27:56.135Z,15.30
2022-12-18T16:30:27.207Z,15.40
2022-12-18T16:32:56.043Z,15.30
2022-12-18T16:35:25.685Z,15.30
2022-12-18T16:37:53.108Z,15.40
2022-12-18T16:40:20.576Z,15.30
2022-12-18T16:42:47.667Z,15.30
2022-12-18T16:45:17.227Z,15.30
2022-12-18T16:47:44.860Z,15.30
2022-12-18T16:50:12.604Z,15.30
2022-12-18T16:52:40.079Z,15.30
2022-12-18T16:55:07.886Z,15.20
2022-12-18T16:57:35.011Z,15.20
2022-12-18T17:00:05.689Z,15.20
2022-12-18T17:02:33.492Z,15.20
2022-12-18T17:05:00.861Z,15.30
2022-12-18T17:07:28.760Z,15.20
2022-12-18T17:09:56.187Z,15.20
2022-12-18T17:12:23.909Z,15.30
2022-12-18T17:14:50.993Z,15.30
2022-12-18T17:17:21.776Z,15.40
2022-12-18T17:19:51.104Z,15.40
2022-12-18T17:22:18.684Z,15.40
2022-12-18T17:24:47.126Z,15.40
2022-12-18T17:27:14.379Z,15.40
2022-12-18T17:29:47.345Z,15.40
2022-12-18T17:32:17.074Z,15.40
2022-12-18T17:34:44.215Z,15.40
2022-12-18T17:37:11.348Z,15.40
2022-12-18T17:39:38.819Z,15.40
2022-12-18T17:42:06.703Z,15.40
2022-12-18T17:44:35.049Z,15.50
2022-12-18T17:47:02.831Z,15.50
2022-12-18T17:49:30.919Z,15.40
2022-12-18T17:51:57.960Z,15.50
2022-12-18T17:54:25.013Z,15.50
2022-12-18T17:56:52.065Z,15.50
2022-12-18T17:59:19.132Z,15.50
2022-12-18T18:01:46.469Z,15.50
2022-12-18T18:04:14.566Z,15.50
2022-12-18T18:06:41.744Z,15.40
2022-12-18T18:09:15.934Z,15.40
2022-12-18T18:12:05.390Z,15.40
2022-12-18T18:14:32.981Z,15.40
2022-12-18T18:17:04.706Z,15.80
2022-12-18T18:19:33.401Z,15.40
2022-12-18T18:22:01.363Z,15.40
2022-12-18T18:24:28.482Z,15.40
2022-12-18T18:26:55.643Z,15.30
2022-12-18T18:29:26.642Z,15.40
2022-12-18T18:31:54.927Z,15.50
2022-12-18T18:34:24.571Z,15.40
2022-12-18T18:36:51.869Z,15.40
2022-12-18T18:39:19.484Z,15.40
2022-12-18T18:41:47.868Z,15.40
2022-12-18T18:44:16.862Z,15.40
2022-12-18T18:46:44.561Z,15.50
2022-12-18T18:49:13.522Z,15.50
2022-12-18T18:51:41.507Z,15.50
2022-12-18T18:54:09.263Z,15.50
2022-12-18T18:59:31.198Z,15.50
2022-12-18T19:02:04.017Z,15.60
2022-12-18T19:04:33.622Z,15.50
2022-12-18T19:07:01.069Z,15.60
2022-12-18T19:09:28.602Z,15.60
2022-12-18T19:12:14.913Z,15.50
2022-12-18T19:14:42.699Z,16.10
2022-12-18T19:17:10.344Z,15.50
2022-12-18T19:19:37.576Z,15.50
2022-12-18T19:22:07.669Z,15.50
2022-12-18T19:24:35.975Z,15.70
2022-12-18T19:27:03.091Z,15.60
2022-12-18T19:29:30.283Z,15.60
2022-12-18T19:31:57.576Z,15.70
2022-12-18T19:34:24.740Z,15.60
2022-12-18T19:36:56.512Z,15.50
2022-12-18T19:39:26.633Z,15.50
2022-12-18T19:41:53.705Z,15.50
2022-12-18T19:44:21.332Z,15.50
2022-12-18T19:46:51.388Z,15.50
2022-12-18T19:49:21.248Z,15.60
2022-12-18T19:51:50.448Z,15.50
2022-12-18T19:54:17.966Z,15.50
2022-12-18T19:56:45.940Z,15.50
2022-12-18T19:59:13.975Z,15.50
2022-12-18T20:01:41.392Z,15.50
2022-12-18T20:04:09.190Z,15.50
2022-12-18T20:06:47.703Z,15.60
2022-12-18T20:09:14.893Z,15.60
2022-12-18T20:11:42.709Z,15.50
2022-12-18T20:14:12.012Z,15.60
2022-12-18T20:16:39.941Z,15.60
2022-12-18T20:19:07.665Z,15.50
2022-12-18T20:21:34.937Z,15.50
2022-12-18T20:24:02.097Z,15.50
2022-12-18T20:26:29.415Z,16.10
2022-12-18T20:28:56.683Z,15.60
2022-12-18T20:31:24.340Z,15.70
2022-12-18T20:33:53.332Z,15.50
2022-12-18T20:36:25.969Z,15.50
2022-12-18T20:38:56.991Z,15.50
2022-12-18T20:41:25.409Z,15.50
2022-12-18T20:43:52.477Z,15.50
2022-12-18T20:46:20.357Z,15.40
2022-12-18T20:48:48.117Z,15.50
2022-12-18T20:51:17.939Z,15.50
2022-12-18T20:53:46.467Z,15.50
2022-12-18T20:56:18.900Z,15.50
2022-12-18T20:58:50.541Z,15.50
2022-12-18T21:01:23.229Z,15.50
2022-12-18T21:03:51.350Z,15.50
2022-12-18T21:06:20.633Z,15.70
2022-12-18T21:08:48.503Z,15.50
2022-12-18T21:11:44.349Z,15.70
2022-12-18T21:14:17.845Z,15.40
2022-12-18T21:16:45.522Z,15.50
2022-12-18T21:19:16.159Z,15.50
2022-12-18T21:21:43.859Z,15.50
2022-12-18T21:24:11.735Z,15.50
2022-12-18T21:26:45.799Z,15.50
2022-12-18T21:29:17.631Z,15.50
2022-12-18T21:31:45.375Z,15.50
2022-12-18T21:34:21.670Z,15.60
2022-12-18T21:36:49.383Z,15.50
2022-12-18T21:39:17.073Z,15.50
2022-12-18T21:42:03.872Z,15.50
2022-12-18T21:44:31.032Z,15.60
2022-12-18T21:47:20.824Z,15.60
2022-12-18T21:49:50.478Z,15.60
2022-12-18T21:52:17.606Z,15.70
2022-12-18T21:54:44.730Z,15.60
2022-12-18T21:57:13.313Z,15.50
2022-12-18T21:59:42.362Z,15.50
2022-12-18T22:02:19.818Z,15.50
2022-12-18T22:04:47.619Z,15.50
2022-12-18T22:07:16.957Z,15.50
2022-12-18T22:09:44.120Z,15.50
2022-12-18T22:12:13.236Z,15.50
2022-12-18T22:14:40.311Z,15.60
2022-12-18T22:17:07.368Z,15.50
2022-12-18T22:19:41.051Z,15.50
2022-12-18T22:22:10.059Z,14.90
2022-12-18T22:24:37.164Z,13.40
2022-12-18T22:27:04.258Z,12.10
2022-12-18T22:29:49.812Z,11.00
2022-12-18T22:32:17.811Z,10.50
2022-12-18T22:35:03.087Z,11.20
2022-12-18T22:37:33.201Z,12.10
2022-12-18T22:40:03.274Z,12.70
2022-12-18T22:42:31.569Z,13.00
2022-12-18T22:45:00.148Z,13.30
2022-12-18T22:47:30.170Z,13.60
2022-12-18T22:49:58.524Z,13.80
2022-12-18T22:52:25.853Z,14.10
2022-12-18T22:54:54.077Z,14.20
2022-12-18T22:57:22.756Z,14.30
2022-12-18T22:59:50.457Z,14.40
2022-12-18T23:02:18.696Z,14.90
2022-12-18T23:04:45.952Z,14.60
2022-12-18T23:07:13.154Z,14.70
2022-12-18T23:09:40.302Z,14.80
2022-12-18T23:12:07.856Z,14.80
2022-12-18T23:14:35.185Z,14.90
2022-12-18T23:17:02.231Z,14.70
2022-12-18T23:19:29.267Z,15.00
2022-12-18T23:21:58.575Z,15.00
2022-12-18T23:24:26.065Z,14.90
2022-12-18T23:26:53.179Z,15.10
2022-12-18T23:29:20.639Z,15.10
2022-12-18T23:31:47.742Z,15.10
2022-12-18T23:34:14.881Z,15.10
2022-12-18T23:36:46.446Z,15.20
2022-12-18T23:39:18.800Z,15.20
2022-12-18T23:41:59.862Z,15.20
2022-12-18T23:44:27.207Z,15.20
2022-12-18T23:46:54.619Z,15.20
2022-12-18T23:49:22.297Z,15.20
2022-12-18T23:51:49.359Z,15.10
2022-12-18T23:54:16.438Z,15.10
2022-12-18T23:56:43.654Z,15.10
2022-12-18T23:59:10.792Z,15.10
